Time;durP1;ratioP1;P1;durP2;ratioP2;P2;SDS_P1;SDS_P2;PMS_P1;PMS_P2;Temp;Humidity;BMP_temperature;BMP_pressure;BME280_temperature;BME280_humidity;BME280_pressure;Samples;Min_cycle;Max_cycle;Signal;HPM_P1;HPM_P2
2023/01/21 00:02:08;;;;;;;1.70;1.25;;;;;;;-146.30;100.00;58188.94;10400178;28;20397;-82
2023/01/21 00:07:09;;;;;;;1.50;1.15;;;;;;;-146.30;100.00;58188.94;10420248;28;20053;-82
2023/01/21 00:12:14;;;;;;;2.58;1.00;;;;;;;-146.30;100.00;58188.94;10421674;28;20404;-82
2023/01/21 00:17:16;;;;;;;0.50;0.50;;;;;;;-146.30;100.00;58188.94;10416347;28;20038;-82
2023/01/21 00:22:17;;;;;;;1.83;1.67;;;;;;;-146.30;100.00;58188.94;10415222;28;20140;-82
2023/01/21 00:27:19;;;;;;;0.75;0.75;;;;;;;-146.30;100.00;58188.94;10411382;28;20046;-82
2023/01/21 00:32:21;;;;;;;0.73;0.73;;;;;;;-146.30;100.00;58188.94;10426471;28;20072;-82
2023/01/21 00:37:24;;;;;;;1.20;1.13;;;;;;;-146.30;100.00;58188.94;10424415;28;20049;-82
2023/01/21 00:42:26;;;;;;;2.40;2.00;;;;;;;-146.30;100.00;58188.94;10430557;28;20047;-82
2023/01/21 00:47:28;;;;;;;1.13;0.93;;;;;;;-146.30;100.00;58188.94;10428976;28;20045;-82
2023/01/21 00:52:30;;;;;;;1.45;0.93;;;;;;;-146.30;100.00;58188.94;10427135;28;20400;-82
2023/01/21 00:57:31;;;;;;;1.73;1.15;;;;;;;-146.30;100.00;58188.94;10427019;28;20053;-82
2023/01/21 01:02:33;;;;;;;1.73;1.60;;;;;;;-146.30;100.00;58188.94;10416393;28;20045;-81
2023/01/21 01:07:35;;;;;;;0.85;0.85;;;;;;;-146.30;100.00;58188.94;10416534;28;20056;-81
2023/01/21 01:12:36;;;;;;;0.63;0.63;;;;;;;-146.30;100.00;58188.94;10416172;28;20042;-82
2023/01/21 01:17:38;;;;;;;3.47;1.48;;;;;;;-146.30;100.00;58188.94;10416493;28;20076;-80
2023/01/21 01:22:40;;;;;;;0.57;0.55;;;;;;;-146.30;100.00;58188.94;10416116;28;20042;-80
2023/01/21 01:27:41;;;;;;;2.72;1.48;;;;;;;-146.30;100.00;58188.94;10415419;28;20497;-81
2023/01/21 01:32:48;;;;;;;2.08;1.50;;;;;;;-146.30;100.00;58188.94;10399092;28;20049;-82
2023/01/21 01:37:50;;;;;;;5.15;2.42;;;;;;;-146.30;100.00;58188.94;10415121;28;20115;-82
2023/01/21 01:42:52;;;;;;;2.90;1.30;;;;;;;-146.30;100.00;58188.94;10414890;28;20049;-82
2023/01/21 01:48:00;;;;;;;1.95;0.98;;;;;;;-146.30;100.00;58188.94;10415295;28;20034;-82
2023/01/21 01:53:02;;;;;;;0.30;0.30;;;;;;;-146.30;100.00;58188.94;10414435;28;20405;-82
2023/01/21 01:58:07;;;;;;;3.65;3.03;;;;;;;-146.30;100.00;58188.94;10415334;28;20041;-82
2023/01/21 02:08:33;;;;;;;3.45;1.35;;;;;;;-146.30;100.00;58188.94;10414305;28;20127;-82
2023/01/21 02:13:35;;;;;;;3.33;1.88;;;;;;;-146.30;100.00;58188.94;10414590;28;20132;-81
2023/01/21 02:18:46;;;;;;;11.10;2.88;;;;;;;-146.30;100.00;58188.94;10414814;28;20041;-81
2023/01/21 02:24:26;;;;;;;4.75;1.85;;;;;;;-146.30;100.00;58188.94;10396794;28;20049;-82
2023/01/21 02:29:57;;;;;;;0.57;0.57;;;;;;;-146.30;100.00;58188.94;10419489;28;20104;-82
2023/01/21 02:35:11;;;;;;;1.63;1.15;;;;;;;-146.30;100.00;58188.94;10413724;28;20069;-81
2023/01/21 02:40:42;;;;;;;2.90;2.30;;;;;;;-146.30;100.00;58188.94;10413042;28;20080;-81
2023/01/21 02:46:03;;;;;;;1.73;1.63;;;;;;;-146.30;100.00;58188.94;10388611;28;20041;-82
2023/01/21 02:51:04;;;;;;;4.00;2.28;;;;;;;-146.30;100.00;58188.94;10395865;28;20116;-82
2023/01/21 02:56:08;;;;;;;2.92;1.15;;;;;;;-146.30;100.00;58188.94;10395510;28;20162;-82
2023/01/21 03:01:32;;;;;;;0.75;0.47;;;;;;;-146.30;100.00;58188.94;10395423;28;20396;-82
2023/01/21 03:06:58;;;;;;;2.65;2.45;;;;;;;-146.30;100.00;58188.94;10401410;28;20060;-82
2023/01/21 03:12:28;;;;;;;0.80;0.73;;;;;;;-146.30;100.00;58188.94;10393522;28;20485;-81
2023/01/21 03:17:43;;;;;;;2.28;1.48;;;;;;;-146.30;100.00;58188.94;10394782;28;20076;-81
2023/01/21 03:22:47;;;;;;;2.03;1.85;;;;;;;-146.30;100.00;58188.94;10401170;28;20049;-80
2023/01/21 03:27:51;;;;;;;3.72;1.70;;;;;;;-146.30;100.00;58188.94;10403850;28;20048;-80
2023/01/21 03:32:56;;;;;;;1.63;1.52;;;;;;;-146.30;100.00;58188.94;10415885;28;20541;-80
2023/01/21 03:38:20;;;;;;;10.40;1.98;;;;;;;-146.30;100.00;58188.94;10433718;28;20057;-80
2023/01/21 03:43:24;;;;;;;1.58;1.48;;;;;;;-146.30;100.00;58188.94;10428046;28;20490;-79
2023/01/21 03:48:32;;;;;;;1.55;1.35;;;;;;;-146.30;100.00;58188.94;10412718;28;20140;-79
2023/01/21 03:53:34;;;;;;;2.15;1.45;;;;;;;-146.30;100.00;58188.94;10420878;28;20072;-79
2023/01/21 03:58:36;;;;;;;0.75;0.75;;;;;;;-146.30;100.00;58188.94;10417646;28;20049;-79
2023/01/21 04:03:39;;;;;;;3.83;2.45;;;;;;;-146.30;100.00;58188.94;10401923;28;20042;-80
2023/01/21 04:08:41;;;;;;;0.57;0.57;;;;;;;-146.30;100.00;58188.94;10418813;28;20053;-81
2023/01/21 04:13:42;;;;;;;2.33;1.52;;;;;;;-146.30;100.00;58188.94;10415585;28;20052;-79
2023/01/21 04:18:44;;;;;;;0.45;0.45;;;;;;;-146.30;100.00;58188.94;10412761;28;20058;-79
2023/01/21 04:23:46;;;;;;;2.75;1.25;;;;;;;-146.30;100.00;58188.94;10417451;28;20041;-79
2023/01/21 04:28:48;;;;;;;2.30;2.00;;;;;;;-146.30;100.00;58188.94;10397727;28;20041;-79
2023/01/21 04:33:49;;;;;;;5.80;1.48;;;;;;;-146.30;100.00;58188.94;10440615;28;20044;-80
2023/01/21 04:38:51;;;;;;;2.10;0.93;;;;;;;-146.30;100.00;58188.94;10427837;28;20476;-79
2023/01/21 04:43:53;;;;;;;2.42;1.40;;;;;;;-146.30;100.00;58188.94;10420915;28;20049;-79
2023/01/21 04:48:55;;;;;;;0.40;0.38;;;;;;;-146.30;100.00;58188.94;10414722;28;20128;-79
2023/01/21 04:53:56;;;;;;;1.55;0.85;;;;;;;-146.30;100.00;58188.94;10414243;28;20103;-79
2023/01/21 04:58:58;;;;;;;1.48;1.38;;;;;;;-146.30;100.00;58188.94;10414270;28;20087;-78
2023/01/21 05:04:00;;;;;;;1.77;1.65;;;;;;;-146.30;100.00;58188.94;10412790;28;20067;-79
2023/01/21 05:09:01;;;;;;;4.88;1.30;;;;;;;-146.30;100.00;58188.94;10397955;28;20041;-79
2023/01/21 05:14:03;;;;;;;4.18;1.73;;;;;;;-146.30;100.00;58188.94;10413171;28;20132;-79
2023/01/21 05:19:04;;;;;;;2.22;1.73;;;;;;;-146.30;100.00;58188.94;10396732;28;20064;-79
2023/01/21 05:24:06;;;;;;;1.13;1.02;;;;;;;-146.30;100.00;58188.94;10425593;28;20057;-79
2023/01/21 05:29:08;;;;;;;0.20;0.20;;;;;;;-146.30;100.00;58188.94;10414860;28;20053;-79
2023/01/21 05:34:10;;;;;;;1.17;0.95;;;;;;;-146.30;100.00;58188.94;10411292;28;20103;-79
2023/01/21 05:39:12;;;;;;;1.45;1.35;;;;;;;-146.30;100.00;58188.94;10412508;28;20099;-80
2023/01/21 05:44:14;;;;;;;3.70;2.35;;;;;;;-146.30;100.00;58188.94;10413163;28;20092;-86
2023/01/21 05:49:18;;;;;;;4.43;2.40;;;;;;;-146.30;100.00;58188.94;10414447;28;20124;-84
2023/01/21 05:54:20;;;;;;;1.65;1.10;;;;;;;-146.30;100.00;58188.94;10412813;28;20077;-85
2023/01/21 05:59:21;;;;;;;2.25;1.90;;;;;;;-146.30;100.00;58188.94;10412356;28;20080;-85
2023/01/21 06:04:29;;;;;;;1.40;1.30;;;;;;;-146.30;100.00;58188.94;10412133;28;20111;-84
2023/01/21 06:09:30;;;;;;;1.45;1.23;;;;;;;-146.30;100.00;58188.94;10414044;28;20053;-85
2023/01/21 06:14:32;;;;;;;3.15;2.78;;;;;;;-146.30;100.00;58188.94;10412890;28;20458;-84
2023/01/21 06:19:34;;;;;;;2.55;1.27;;;;;;;-146.30;100.00;58188.94;10411735;28;20056;-85
2023/01/21 06:24:35;;;;;;;4.13;1.77;;;;;;;-146.30;100.00;58188.94;10410247;28;20049;-84
2023/01/21 06:29:37;;;;;;;1.88;0.75;;;;;;;-146.30;100.00;58188.94;10411993;28;20041;-84
2023/01/21 06:34:38;;;;;;;2.67;0.77;;;;;;;-146.30;100.00;58188.94;10410638;28;20041;-85
2023/01/21 06:39:40;;;;;;;3.88;1.63;;;;;;;-146.30;100.00;58188.94;10412524;28;20397;-84
2023/01/21 06:44:42;;;;;;;1.75;1.05;;;;;;;-146.30;100.00;58188.94;10410049;28;20120;-84
2023/01/21 06:49:44;;;;;;;1.20;1.10;;;;;;;-146.30;100.00;58188.94;10412911;28;20041;-85
2023/01/21 06:54:47;;;;;;;4.15;1.98;;;;;;;-146.30;100.00;58188.94;10425627;28;20041;-84
2023/01/21 06:59:48;;;;;;;1.65;1.45;;;;;;;-146.30;100.00;58188.94;10412956;28;20057;-84
2023/01/21 07:04:50;;;;;;;4.85;2.38;;;;;;;-146.30;100.00;58188.94;10411858;28;20056;-85
2023/01/21 07:09:52;;;;;;;2.47;2.05;;;;;;;-146.30;100.00;58188.94;10383342;28;20068;-85
2023/01/21 07:14:53;;;;;;;6.82;1.90;;;;;;;-146.30;100.00;58188.94;10411039;28;20128;-84
2023/01/21 07:19:55;;;;;;;9.10;1.55;;;;;;;-146.30;100.00;58188.94;10410323;28;20169;-84
2023/01/21 07:24:56;;;;;;;0.57;0.55;;;;;;;-146.30;100.00;58188.94;10419147;28;20036;-85
2023/01/21 07:29:58;;;;;;;0.73;0.57;;;;;;;-146.30;100.00;58188.94;10414157;28;20041;-84
2023/01/21 07:35:00;;;;;;;4.22;3.17;;;;;;;-146.30;100.00;58188.94;10423263;28;20442;-84
2023/01/21 07:40:01;;;;;;;2.28;2.08;;;;;;;-146.30;100.00;58188.94;10420206;28;20041;-84
2023/01/21 07:45:06;;;;;;;9.32;1.70;;;;;;;-146.30;100.00;58188.94;10406591;28;20100;-83
2023/01/21 07:50:08;;;;;;;1.52;1.42;;;;;;;-146.30;100.00;58188.94;10409394;28;20076;-85
2023/01/21 07:55:09;;;;;;;12.07;1.98;;;;;;;-146.30;100.00;58188.94;10386590;28;20081;-83
2023/01/21 08:00:14;;;;;;;0.88;0.85;;;;;;;-146.30;100.00;58188.94;10389629;28;20049;-84
2023/01/21 08:05:15;;;;;;;0.10;0.10;;;;;;;-146.30;100.00;58188.94;10408037;28;20046;-84
2023/01/21 08:10:20;;;;;;;4.65;1.55;;;;;;;-146.30;100.00;58188.94;10431004;28;20051;-84
2023/01/21 08:15:22;;;;;;;3.45;2.92;;;;;;;-146.30;100.00;58188.94;10427493;28;20041;-84
2023/01/21 08:20:24;;;;;;;1.10;0.45;;;;;;;-146.30;100.00;58188.94;10434847;28;20090;-84
2023/01/21 08:25:25;;;;;;;3.83;1.92;;;;;;;-146.30;100.00;58188.94;10419417;28;20072;-82
2023/01/21 08:30:27;;;;;;;1.58;1.20;;;;;;;-146.30;100.00;58188.94;10434939;28;20091;-84
2023/01/21 08:35:29;;;;;;;1.45;1.23;;;;;;;-146.30;100.00;58188.94;10429056;28;20489;-84
2023/01/21 08:40:31;;;;;;;1.38;1.27;;;;;;;-146.30;100.00;58188.94;10431490;28;20425;-84
2023/01/21 08:45:32;;;;;;;0.38;0.38;;;;;;;-146.30;100.00;58188.94;10414726;28;20076;-84
2023/01/21 08:50:35;;;;;;;3.22;2.03;;;;;;;-146.30;100.00;58188.94;10414594;28;20047;-85
2023/01/21 08:55:37;;;;;;;3.20;1.70;;;;;;;-146.30;100.00;58188.94;10409983;28;20056;-85
2023/01/21 09:00:40;;;;;;;2.28;2.05;;;;;;;-146.30;100.00;58188.94;10415128;28;20049;-85
2023/01/21 09:05:42;;;;;;;2.97;1.02;;;;;;;-146.30;100.00;58188.94;10398407;28;20045;-84
2023/01/21 09:11:02;;;;;;;1.80;1.60;;;;;;;-146.30;100.00;58188.94;10398431;28;20464;-84
2023/01/21 09:16:15;;;;;;;1.40;1.08;;;;;;;-146.30;100.00;58188.94;10402297;28;20049;-84
2023/01/21 09:21:17;;;;;;;2.83;1.45;;;;;;;-146.30;100.00;58188.94;10413039;28;20045;-84
2023/01/21 09:26:21;;;;;;;4.82;1.73;;;;;;;-146.30;100.00;58188.94;10421121;28;20315;-85
2023/01/21 09:31:24;;;;;;;2.03;0.77;;;;;;;-146.30;100.00;58188.94;10406048;28;20049;-80
2023/01/21 09:36:32;;;;;;;4.75;3.42;;;;;;;-146.30;100.00;58188.94;10406998;28;20064;-80
2023/01/21 09:41:40;;;;;;;1.88;1.52;;;;;;;-146.30;100.00;58188.94;10389852;28;20482;-79
2023/01/21 09:47:07;;;;;;;0.30;0.30;;;;;;;-146.30;100.00;58188.94;10408275;28;20029;-80
2023/01/21 09:52:36;;;;;;;3.53;1.67;;;;;;;-146.30;100.00;58188.94;10418649;28;20049;-81
2023/01/21 09:57:53;;;;;;;0.88;0.82;;;;;;;-146.30;100.00;58188.94;10406647;28;20439;-80
2023/01/21 10:03:04;;;;;;;1.98;1.63;;;;;;;-146.30;100.00;58188.94;10424176;28;20057;-81
2023/01/21 10:08:20;;;;;;;0.77;0.77;;;;;;;-146.30;100.00;58188.94;10419545;28;20151;-80
2023/01/21 10:13:33;;;;;;;1.02;0.85;;;;;;;-146.30;100.00;58188.94;10418221;28;20091;-80
2023/01/21 10:18:39;;;;;;;0.22;0.22;;;;;;;-146.30;100.00;58188.94;10413678;28;20107;-81
2023/01/21 10:23:46;;;;;;;4.20;2.47;;;;;;;-146.30;100.00;58188.94;10445110;28;20041;-81
2023/01/21 10:28:50;;;;;;;0.40;0.40;;;;;;;-146.30;100.00;58188.94;10411130;28;20073;-81
2023/01/21 10:33:52;;;;;;;1.13;0.93;;;;;;;-146.30;100.00;58188.94;10425823;28;20041;-81
2023/01/21 10:39:19;;;;;;;2.83;1.60;;;;;;;-146.30;100.00;58188.94;10411984;28;20045;-82
2023/01/21 10:44:37;;;;;;;6.22;1.75;;;;;;;-146.30;100.00;58188.94;10411965;28;20053;-82
2023/01/21 10:50:00;;;;;;;1.33;1.23;;;;;;;-146.30;100.00;58188.94;10411906;28;20053;-81
2023/01/21 10:55:40;;;;;;;4.25;1.77;;;;;;;-146.30;100.00;58188.94;10409079;28;20033;-81
2023/01/21 11:00:47;;;;;;;0.80;0.80;;;;;;;-146.30;100.00;58188.94;10428353;28;20050;-82
2023/01/21 11:05:50;;;;;;;1.55;0.95;;;;;;;-146.30;100.00;58188.94;10412368;28;20037;-81
2023/01/21 11:10:54;;;;;;;2.00;1.52;;;;;;;-146.30;100.00;58188.94;10412345;28;20049;-81
2023/01/21 11:15:58;;;;;;;1.25;1.20;;;;;;;-146.30;100.00;58188.94;10410392;28;20049;-81
2023/01/21 11:21:16;;;;;;;3.40;1.25;;;;;;;-146.30;100.00;58188.94;10413333;28;20106;-81
2023/01/21 11:26:23;;;;;;;1.17;0.98;;;;;;;-146.30;100.00;58188.94;10418056;28;20050;-82
2023/01/21 11:31:26;;;;;;;1.40;1.23;;;;;;;-146.30;100.00;58188.94;10420187;28;20046;-80
2023/01/21 11:36:28;;;;;;;3.38;1.45;;;;;;;-146.30;100.00;58188.94;10410769;28;20072;-81
2023/01/21 11:41:30;;;;;;;0.45;0.30;;;;;;;-146.30;100.00;58188.94;10414871;28;20065;-81
2023/01/21 11:46:39;;;;;;;2.05;1.50;;;;;;;-146.30;100.00;58188.94;10429673;28;20099;-81
2023/01/21 11:51:44;;;;;;;1.85;1.73;;;;;;;-146.30;100.00;58188.94;10422535;28;20401;-81
2023/01/21 11:56:56;;;;;;;4.55;1.95;;;;;;;-146.30;100.00;58188.94;10416578;28;20040;-81
2023/01/21 12:02:33;;;;;;;0.52;0.52;;;;;;;-146.30;100.00;58188.94;10422999;28;20072;-81
2023/01/21 12:07:39;;;;;;;0.20;0.15;;;;;;;-146.30;100.00;58188.94;10404845;28;20382;-81
2023/01/21 12:13:21;;;;;;;0.57;0.55;;;;;;;-146.30;100.00;58188.94;10403158;28;20081;-81
2023/01/21 12:18:50;;;;;;;1.95;1.08;;;;;;;-146.30;100.00;58188.94;10386536;28;20093;-81
2023/01/21 12:24:01;;;;;;;0.20;0.20;;;;;;;-146.30;100.00;58188.94;10439254;28;20049;-81
2023/01/21 12:29:27;;;;;;;0.40;0.40;;;;;;;-146.30;100.00;58188.94;10422091;28;20073;-81
2023/01/21 12:34:34;;;;;;;0.30;0.30;;;;;;;-146.30;100.00;58188.94;10415768;28;20492;-80
2023/01/21 12:39:36;;;;;;;2.67;0.77;;;;;;;-146.30;100.00;58188.94;10400956;28;20501;-80
2023/01/21 12:44:47;;;;;;;1.13;1.02;;;;;;;-146.30;100.00;58188.94;10398587;28;20065;-80
2023/01/21 12:50:11;;;;;;;4.10;1.27;;;;;;;-146.30;100.00;58188.94;10409084;28;20054;-79
2023/01/21 12:55:20;;;;;;;1.38;1.27;;;;;;;-146.30;100.00;58188.94;10405161;28;20049;-80
2023/01/21 13:00:31;;;;;;;0.88;0.85;;;;;;;-146.30;100.00;58188.94;10410765;28;20106;-80
2023/01/21 13:05:43;;;;;;;1.17;1.08;;;;;;;-146.30;100.00;58188.94;10410046;28;20041;-81
2023/01/21 13:10:47;;;;;;;;;;;;;;;-146.30;100.00;58188.94;10418008;28;20053;-80
2023/01/21 13:15:55;;;;;;;1.65;1.17;;;;;;;-146.30;100.00;58188.94;10414702;28;19924;-80
2023/01/21 13:21:07;;;;;;;1.38;1.15;;;;;;;-146.30;100.00;58188.94;10406670;28;20460;-81
2023/01/21 13:26:42;;;;;;;0.95;0.52;;;;;;;-146.30;100.00;58188.94;10423691;28;20112;-80
2023/01/21 13:32:19;;;;;;;10.57;1.83;;;;;;;-146.30;100.00;58188.94;10403887;28;20079;-80
2023/01/21 13:37:39;;;;;;;0.47;0.47;;;;;;;-146.30;100.00;58188.94;10412581;28;20083;-80
2023/01/21 13:43:01;;;;;;;1.73;1.38;;;;;;;-146.30;100.00;58188.94;10426364;28;20045;-81
2023/01/21 13:48:18;;;;;;;0.75;0.75;;;;;;;-146.30;100.00;58188.94;10434727;28;20045;-80
2023/01/21 13:54:00;;;;;;;1.38;1.27;;;;;;;-146.30;100.00;58188.94;10411936;28;20053;-80
2023/01/21 13:59:05;;;;;;;1.10;0.90;;;;;;;-146.30;100.00;58188.94;10420054;28;20084;-80
2023/01/21 14:04:27;;;;;;;4.40;2.20;;;;;;;-146.30;100.00;58188.94;10423952;28;20037;-80
2023/01/21 14:09:51;;;;;;;0.43;0.43;;;;;;;-146.30;100.00;58188.94;10401897;28;20068;-81
2023/01/21 14:15:21;;;;;;;0.08;0.08;;;;;;;-146.30;100.00;58188.94;10446893;28;20044;-80
2023/01/21 14:20:46;;;;;;;2.15;1.58;;;;;;;-146.30;100.00;58188.94;10410331;28;20584;-80
2023/01/21 14:26:33;;;;;;;1.58;0.98;;;;;;;-146.30;100.00;58188.94;10394462;28;20049;-80
2023/01/21 14:31:45;;;;;;;4.43;1.33;;;;;;;-146.30;100.00;58188.94;10424022;28;20052;-80
2023/01/21 14:36:46;;;;;;;0.73;0.73;;;;;;;-146.30;100.00;58188.94;10410124;28;20045;-81
2023/01/21 14:42:05;;;;;;;0.65;0.35;;;;;;;-146.30;100.00;58188.94;10410746;28;20532;-81
2023/01/21 14:47:16;;;;;;;1.40;0.52;;;;;;;-146.30;100.00;58188.94;10411945;28;20064;-81
2023/01/21 14:52:30;;;;;;;1.63;0.73;;;;;;;-146.30;100.00;58188.94;10424289;28;20053;-81
2023/01/21 14:57:35;;;;;;;0.68;0.68;;;;;;;-146.30;100.00;58188.94;10409990;28;20117;-81
2023/01/21 15:02:46;;;;;;;2.50;1.02;;;;;;;-146.30;100.00;58188.94;10411741;28;20097;-81
2023/01/21 15:08:01;;;;;;;0.90;0.47;;;;;;;-146.30;100.00;58188.94;10410124;28;20041;-81
2023/01/21 15:13:26;;;;;;;4.03;1.17;;;;;;;-146.30;100.00;58188.94;10418980;28;20049;-81
2023/01/21 15:18:37;;;;;;;9.43;2.22;;;;;;;-146.30;100.00;58188.94;10402343;28;20052;-81
2023/01/21 15:23:39;;;;;;;1.65;1.10;;;;;;;-146.30;100.00;58188.94;10432779;28;20045;-81
2023/01/21 15:28:50;;;;;;;1.85;0.98;;;;;;;-146.30;100.00;58188.94;10419277;28;20432;-81
2023/01/21 15:33:56;;;;;;;0.60;0.60;;;;;;;-146.30;100.00;58188.94;10429976;28;20045;-81
2023/01/21 15:39:10;;;;;;;1.02;1.02;;;;;;;-146.30;100.00;58188.94;10405834;28;20497;-81
2023/01/21 15:44:33;;;;;;;5.15;1.25;;;;;;;-146.30;100.00;58188.94;10406661;28;20053;-81
2023/01/21 15:49:58;;;;;;;1.85;1.55;;;;;;;-146.30;100.00;58188.94;10398618;28;20115;-81
2023/01/21 15:55:42;;;;;;;1.88;0.82;;;;;;;-146.30;100.00;58188.94;10417023;28;20051;-82
2023/01/21 16:00:52;;;;;;;0.35;0.32;;;;;;;-146.30;100.00;58188.94;10396045;28;20136;-81
2023/01/21 16:06:03;;;;;;;8.68;2.08;;;;;;;-146.30;100.00;58188.94;10393370;28;20045;-80
2023/01/21 16:11:19;;;;;;;1.02;0.88;;;;;;;-146.30;100.00;58188.94;10407474;28;20143;-80
2023/01/21 16:16:51;;;;;;;4.57;2.55;;;;;;;-146.30;100.00;58188.94;10404306;28;20052;-80
2023/01/21 16:21:57;;;;;;;0.85;0.82;;;;;;;-146.30;100.00;58188.94;10404181;28;20143;-81
2023/01/21 16:27:18;;;;;;;0.98;0.63;;;;;;;-146.30;100.00;58188.94;10391528;28;20049;-80
2023/01/21 16:32:20;;;;;;;2.15;0.50;;;;;;;-146.30;100.00;58188.94;10411616;28;20147;-80
2023/01/21 16:37:23;;;;;;;0.38;0.38;;;;;;;-146.30;100.00;58188.94;10415688;28;20069;-80
2023/01/21 16:42:41;;;;;;;2.83;1.65;;;;;;;-146.30;100.00;58188.94;10410926;28;20064;-80
2023/01/21 16:47:45;;;;;;;0.47;0.20;;;;;;;-146.30;100.00;58188.94;10431090;28;20033;-80
2023/01/21 16:52:48;;;;;;;4.25;1.58;;;;;;;-146.30;100.00;58188.94;10407854;28;20041;-80
2023/01/21 16:57:51;;;;;;;1.60;1.50;;;;;;;-146.30;100.00;58188.94;10410708;28;20095;-80
2023/01/21 17:02:53;;;;;;;3.30;0.80;;;;;;;-146.30;100.00;58188.94;10427901;28;20099;-80
2023/01/21 17:08:02;;;;;;;1.33;1.20;;;;;;;-146.30;100.00;58188.94;10397845;28;20188;-80
2023/01/21 17:13:06;;;;;;;4.50;2.25;;;;;;;-146.30;100.00;58188.94;10408100;28;20405;-80
2023/01/21 17:18:26;;;;;;;0.68;0.68;;;;;;;-146.30;100.00;58188.94;10406409;28;20033;-80
2023/01/21 17:23:34;;;;;;;3.05;1.60;;;;;;;-146.30;100.00;58188.94;10419822;28;20443;-80
2023/01/21 17:28:39;;;;;;;0.30;0.22;;;;;;;-146.30;100.00;58188.94;10423408;28;20037;-80
2023/01/21 17:33:42;;;;;;;1.45;0.95;;;;;;;-146.30;100.00;58188.94;10385759;28;20056;-80
2023/01/21 17:38:46;;;;;;;0.28;0.28;;;;;;;-146.30;100.00;58188.94;10403569;28;20458;-80
2023/01/21 17:43:49;;;;;;;1.02;0.73;;;;;;;-146.30;100.00;58188.94;10405824;28;20045;-85
2023/01/21 17:48:57;;;;;;;0.40;0.40;;;;;;;-146.30;100.00;58188.94;10411568;28;20041;-84
2023/01/21 17:54:02;;;;;;;0.95;0.68;;;;;;;-146.30;100.00;58188.94;10412816;28;20405;-85
2023/01/21 17:59:26;;;;;;;0.25;0.25;;;;;;;-146.30;100.00;58188.94;10414086;28;20041;-84
2023/01/21 18:04:28;;;;;;;0.28;0.25;;;;;;;-146.30;100.00;58188.94;10423712;28;20041;-84
2023/01/21 18:09:33;;;;;;;0.70;0.57;;;;;;;-146.30;100.00;58188.94;10413597;28;20492;-84
2023/01/21 18:14:34;;;;;;;0.90;0.65;;;;;;;-146.30;100.00;58188.94;10399294;28;20050;-84
2023/01/21 18:19:36;;;;;;;0.28;0.28;;;;;;;-146.30;100.00;58188.94;10410514;28;20044;-85
2023/01/21 18:24:38;;;;;;;1.90;1.75;;;;;;;-146.30;100.00;58188.94;10411599;28;20485;-84
2023/01/21 18:29:41;;;;;;;1.13;1.02;;;;;;;-146.30;100.00;58188.94;10396259;28;20053;-85
2023/01/21 18:34:45;;;;;;;0.95;0.85;;;;;;;-146.30;100.00;58188.94;10418806;28;20037;-84
2023/01/21 18:39:47;;;;;;;3.70;1.42;;;;;;;-146.30;100.00;58188.94;10425209;28;20064;-84
2023/01/21 18:44:48;;;;;;;1.15;1.15;;;;;;;-146.30;100.00;58188.94;10410860;28;20045;-84
2023/01/21 18:49:50;;;;;;;2.10;1.42;;;;;;;-146.30;100.00;58188.94;10433336;28;20081;-83
2023/01/21 18:54:51;;;;;;;1.50;1.35;;;;;;;-146.30;100.00;58188.94;10413999;28;20053;-82
2023/01/21 18:59:53;;;;;;;4.22;0.98;;;;;;;-146.30;100.00;58188.94;10414122;28;20045;-84
2023/01/21 19:04:55;;;;;;;0.20;0.20;;;;;;;-146.30;100.00;58188.94;10409354;28;20098;-84
2023/01/21 19:09:57;;;;;;;2.30;0.57;;;;;;;-146.30;100.00;58188.94;10395068;28;20060;-84
2023/01/21 19:14:59;;;;;;;0.68;0.68;;;;;;;-146.30;100.00;58188.94;10408078;28;20498;-84
2023/01/21 19:20:00;;;;;;;1.17;1.05;;;;;;;-146.30;100.00;58188.94;10400563;28;20045;-84
2023/01/21 19:25:03;;;;;;;1.58;0.98;;;;;;;-146.30;100.00;58188.94;10407778;28;20072;-84
2023/01/21 19:30:13;;;;;;;0.60;0.60;;;;;;;-146.30;100.00;58188.94;10421844;28;20105;-84
2023/01/21 19:35:18;;;;;;;1.45;0.95;;;;;;;-146.30;100.00;58188.94;10411151;28;20129;-85
2023/01/21 19:40:22;;;;;;;2.42;2.22;;;;;;;-146.30;100.00;58188.94;10392605;28;20140;-85
2023/01/21 19:45:27;;;;;;;2.83;1.90;;;;;;;-146.30;100.00;58188.94;10412380;28;20408;-84
2023/01/21 19:50:29;;;;;;;1.02;0.75;;;;;;;-146.30;100.00;58188.94;10391867;28;20129;-84
2023/01/21 19:55:34;;;;;;;0.45;0.45;;;;;;;-146.30;100.00;58188.94;10408179;28;20045;-85
2023/01/21 20:00:36;;;;;;;0.77;0.77;;;;;;;-146.30;100.00;58188.94;10412508;28;20547;-84
2023/01/21 20:05:38;;;;;;;0.60;0.60;;;;;;;-146.30;100.00;58188.94;10413866;28;20129;-85
2023/01/21 20:10:40;;;;;;;0.77;0.77;;;;;;;-146.30;100.00;58188.94;10414629;28;20053;-85
2023/01/21 20:15:45;;;;;;;1.48;0.68;;;;;;;-146.30;100.00;58188.94;10396014;28;20132;-85
2023/01/21 20:20:47;;;;;;;0.20;0.20;;;;;;;-146.30;100.00;58188.94;10412929;28;20111;-86
2023/01/21 20:25:52;;;;;;;0.57;0.57;;;;;;;-146.30;100.00;58188.94;10416071;28;20124;-85
2023/01/21 20:30:53;;;;;;;0.30;0.17;;;;;;;-146.30;100.00;58188.94;10397653;28;20040;-85
2023/01/21 20:35:55;;;;;;;0.95;0.95;;;;;;;-146.30;100.00;58188.94;10414922;28;20244;-83
2023/01/21 20:40:59;;;;;;;3.60;0.70;;;;;;;-146.30;100.00;58188.94;10418039;28;20132;-85
2023/01/21 20:46:06;;;;;;;0.03;0.03;;;;;;;-146.30;100.00;58188.94;10413773;28;20083;-84
2023/01/21 20:51:08;;;;;;;0.40;0.40;;;;;;;-146.30;100.00;58188.94;10437015;28;20052;-84
2023/01/21 20:56:17;;;;;;;2.72;1.48;;;;;;;-146.30;100.00;58188.94;10422166;28;20053;-84
2023/01/21 21:01:21;;;;;;;0.40;0.40;;;;;;;-146.30;100.00;58188.94;10418943;28;20045;-83
2023/01/21 21:06:30;;;;;;;1.40;0.63;;;;;;;-146.30;100.00;58188.94;10415684;28;20050;-83
2023/01/21 21:11:32;;;;;;;0.50;0.50;;;;;;;-146.30;100.00;58188.94;10410818;28;20475;-83
2023/01/21 21:16:34;;;;;;;0.43;0.43;;;;;;;-146.30;100.00;58188.94;10411898;28;20401;-83
2023/01/21 21:21:36;;;;;;;1.13;0.82;;;;;;;-146.30;100.00;58188.94;10426730;28;20052;-82
2023/01/21 21:26:39;;;;;;;0.57;0.57;;;;;;;-146.30;100.00;58188.94;10412589;28;20627;-82
2023/01/21 21:31:41;;;;;;;1.08;0.85;;;;;;;-146.30;100.00;58188.94;10412991;28;20551;-81
2023/01/21 21:36:43;;;;;;;1.35;1.13;;;;;;;-146.30;100.00;58188.94;10414058;28;20084;-82
2023/01/21 21:52:45;;;;;;;3.20;0.82;;;;;;;-146.30;100.00;58188.94;10352418;28;20056;-82
2023/01/21 21:57:46;;;;;;;0.30;0.30;;;;;;;-146.30;100.00;58188.94;10402949;28;20103;-82
2023/01/21 22:02:49;;;;;;;1.00;0.90;;;;;;;-146.30;100.00;58188.94;10412371;28;20073;-82
2023/01/21 22:07:51;;;;;;;0.25;0.25;;;;;;;-146.30;100.00;58188.94;10398102;28;20489;-80
2023/01/21 22:12:52;;;;;;;1.45;1.27;;;;;;;-146.30;100.00;58188.94;10397813;28;20057;-80
2023/01/21 22:17:54;;;;;;;0.40;0.40;;;;;;;-146.30;100.00;58188.94;10395629;28;20393;-80
2023/01/21 22:22:55;;;;;;;0.50;0.43;;;;;;;-146.30;100.00;58188.94;10410942;28;20049;-79
2023/01/21 22:27:57;;;;;;;0.95;0.90;;;;;;;-146.30;100.00;58188.94;10412198;28;20045;-80
2023/01/21 22:33:01;;;;;;;2.33;0.75;;;;;;;-146.30;100.00;58188.94;10418591;28;20036;-83
2023/01/21 22:38:02;;;;;;;1.30;1.20;;;;;;;-146.30;100.00;58188.94;10430287;28;20037;-82
2023/01/21 22:43:05;;;;;;;0.80;0.80;;;;;;;-146.30;100.00;58188.94;10405254;28;20496;-83
2023/01/21 22:48:07;;;;;;;0.85;0.75;;;;;;;-146.30;100.00;58188.94;10437944;28;20559;-83
2023/01/21 22:53:12;;;;;;;0.15;0.15;;;;;;;-146.30;100.00;58188.94;10436311;28;20045;-83
2023/01/21 22:58:14;;;;;;;0.10;0.10;;;;;;;-146.30;100.00;58188.94;10435862;28;20440;-83
2023/01/21 23:03:16;;;;;;;1.08;0.90;;;;;;;-146.30;100.00;58188.94;10410151;28;20069;-83
2023/01/21 23:08:18;;;;;;;0.63;0.63;;;;;;;-146.30;100.00;58188.94;10444299;28;20087;-83
2023/01/21 23:13:22;;;;;;;0.93;0.75;;;;;;;-146.30;100.00;58188.94;10444457;28;20524;-83
2023/01/21 23:18:26;;;;;;;1.40;1.30;;;;;;;-146.30;100.00;58188.94;10425074;28;20068;-83